createdAt,value
2022-09-24T00:02:27.573Z,99218.31
2022-09-24T00:04:58.040Z,99222.25
2022-09-24T00:07:26.442Z,99223.34
2022-09-24T00:09:54.747Z,99226.13
2022-09-24T00:12:23.140Z,99227.50
2022-09-24T00:14:51.470Z,99218.69
2022-09-24T00:17:19.791Z,99218.47
2022-09-24T00:19:48.106Z,99212.13
2022-09-24T00:22:17.847Z,99204.94
2022-09-24T00:25:12.199Z,99211.59
2022-09-24T00:27:40.818Z,99222.06
2022-09-24T00:30:10.713Z,99217.34
2022-09-24T00:32:39.123Z,99216.56
2022-09-24T00:35:08.655Z,99222.06
2022-09-24T00:37:38.897Z,99216.03
2022-09-24T00:40:09.589Z,99208.00
2022-09-24T00:42:37.970Z,99210.78
2022-09-24T00:45:07.714Z,99206.38
2022-09-24T00:47:39.788Z,99204.44
2022-09-24T00:50:17.687Z,99198.13
2022-09-24T00:52:54.374Z,99196.75
2022-09-24T00:55:24.963Z,99192.88
2022-09-24T00:57:58.227Z,99195.91
2022-09-24T01:00:27.711Z,99196.75
2022-09-24T01:03:02.380Z,99192.06
2022-09-24T01:05:31.210Z,99186.25
2022-09-24T01:08:00.952Z,99192.31
2022-09-24T01:10:49.034Z,99191.47
2022-09-24T01:13:34.778Z,99189.25
2022-09-24T01:16:11.233Z,99185.41
2022-09-24T01:18:48.297Z,99179.06
2022-09-24T01:21:34.660Z,99179.06
2022-09-24T01:24:47.454Z,99170.25
2022-09-24T01:27:21.216Z,99176.28
2022-09-24T01:30:03.624Z,99174.38
2022-09-24T01:32:38.334Z,99171.31
2022-09-24T01:35:16.099Z,99177.66
2022-09-24T01:37:52.801Z,99166.34
2022-09-24T01:40:24.363Z,99164.69
2022-09-24T01:42:55.404Z,99172.16
2022-09-24T01:45:26.899Z,99168.84
2022-09-24T01:47:55.239Z,99166.38
2022-09-24T01:50:25.778Z,99158.38
2022-09-24T01:53:01.413Z,99165.28
2022-09-24T01:55:38.298Z,99161.47
2022-09-24T01:58:11.534Z,99164.53
2022-09-24T02:00:47.018Z,99160.09
2022-09-24T02:03:20.356Z,99152.13
2022-09-24T02:05:55.519Z,99154.34
2022-09-24T02:08:27.536Z,99154.34
2022-09-24T02:11:02.405Z,99149.09
2022-09-24T02:13:40.305Z,99151.31
2022-09-24T02:16:16.331Z,99148.31
2022-09-24T02:18:49.022Z,99145.84
2022-09-24T02:21:21.466Z,99147.78
2022-09-24T02:23:57.349Z,99147.50
2022-09-24T02:26:25.847Z,99151.91
2022-09-24T02:28:54.618Z,99139.22
2022-09-24T02:31:30.338Z,99135.09
2022-09-24T02:34:20.409Z,99142.28
2022-09-24T02:36:50.322Z,99151.34
2022-09-24T02:39:18.774Z,99146.13
2022-09-24T02:41:49.291Z,99132.63
2022-09-24T02:44:18.618Z,99138.94
2022-09-24T02:46:50.489Z,99124.94
2022-09-24T02:49:19.534Z,99135.94
2022-09-24T02:51:48.267Z,99139.22
2022-09-24T02:54:16.960Z,99144.44
2022-09-24T02:56:45.529Z,99140.59
2022-09-24T02:59:13.881Z,99137.53
2022-09-24T03:01:42.383Z,99126.25
2022-09-24T03:04:12.343Z,99129.53
2022-09-24T03:06:40.684Z,99119.03
2022-09-24T03:09:09.015Z,99123.16
2022-09-24T03:11:37.291Z,99133.59
2022-09-24T03:14:05.654Z,99133.59
2022-09-24T03:16:34.731Z,99139.09
2022-09-24T03:19:03.133Z,99133.31
2022-09-24T03:21:32.940Z,99126.97
2022-09-24T03:24:01.422Z,99122.28
2022-09-24T03:26:29.837Z,99121.97
2022-09-24T03:28:58.175Z,99118.38
2022-09-24T03:31:25.577Z,99124.72
2022-09-24T03:33:54.582Z,99115.63
2022-09-24T03:36:25.967Z,99106.53
2022-09-24T03:38:57.889Z,99116.75
2022-09-24T03:41:28.468Z,99115.94
2022-09-24T03:43:57.230Z,99115.41
2022-09-24T03:46:30.478Z,99117.03
2022-09-24T03:49:00.521Z,99114.56
2022-09-24T03:51:28.968Z,99118.94
2022-09-24T03:53:58.668Z,99116.19
2022-09-24T03:56:27.228Z,99114.56
2022-09-24T03:58:56.230Z,99118.72
2022-09-24T04:01:24.592Z,99117.06
2022-09-24T04:03:54.321Z,99119.28
2022-09-24T04:06:25.913Z,99126.47
2022-09-24T04:08:55.638Z,99126.78
2022-09-24T04:11:25.898Z,99113.84
2022-09-24T04:13:54.502Z,99114.94
2022-09-24T04:16:23.036Z,99111.13
2022-09-24T04:18:51.360Z,99109.75
2022-09-24T04:21:19.726Z,99107.56
2022-09-24T04:23:48.516Z,99114.47
2022-09-24T04:26:17.232Z,99104.84
2022-09-24T04:28:46.945Z,99104.28
2022-09-24T04:31:15.366Z,99110.09
2022-09-24T04:33:43.744Z,99109.28
2022-09-24T04:36:12.057Z,99116.72
2022-09-24T04:38:40.388Z,99111.19
2022-09-24T04:41:10.176Z,99109.84
2022-09-24T04:43:38.491Z,99117.28
2022-09-24T04:46:09.345Z,99107.34
2022-09-24T04:48:38.304Z,99102.97
2022-09-24T04:51:08.622Z,99097.44
2022-09-24T04:53:38.414Z,99096.63
2022-09-24T04:56:12.199Z,99111.22
2022-09-24T04:58:40.907Z,99115.06
2022-09-24T05:01:13.679Z,99112.31
2022-09-24T05:03:42.059Z,99110.66
2022-09-24T05:06:10.392Z,99114.78
2022-09-24T05:08:38.779Z,99109.78
2022-09-24T05:11:07.473Z,99113.06
2022-09-24T05:13:36.142Z,99114.91
2022-09-24T05:16:04.565Z,99106.84
2022-09-24T05:18:34.282Z,99114.00
2022-09-24T05:21:02.629Z,99109.25
2022-09-24T05:23:30.995Z,99110.63
2022-09-24T05:26:16.537Z,99113.63
2022-09-24T05:28:44.935Z,99116.09
2022-09-24T05:31:13.956Z,99112.22
2022-09-24T05:33:43.802Z,99105.03
2022-09-24T05:36:12.111Z,99103.03
2022-09-24T05:38:41.870Z,99102.16
2022-09-24T05:41:10.839Z,99109.00
2022-09-24T05:43:39.165Z,99115.53
2022-09-24T05:46:08.176Z,99116.25
2022-09-24T05:48:36.626Z,99124.97
2022-09-24T05:51:07.041Z,99134.31
2022-09-24T05:53:35.816Z,99129.53
2022-09-24T05:56:04.138Z,99139.66
2022-09-24T05:58:32.798Z,99137.31
2022-09-24T06:01:02.046Z,99141.69
2022-09-24T06:03:31.907Z,99143.59
2022-09-24T06:06:02.215Z,99138.28
2022-09-24T06:08:33.653Z,99145.75
2022-09-24T06:11:02.582Z,99138.28
2022-09-24T06:13:31.684Z,99141.03
2022-09-24T06:16:03.102Z,99137.75
2022-09-24T06:18:31.655Z,99140.50
2022-09-24T06:21:03.945Z,99144.09
2022-09-24T06:23:33.821Z,99143.22
2022-09-24T06:26:02.558Z,99144.81
2022-09-24T06:28:30.915Z,99133.94
2022-09-24T06:31:01.791Z,99131.63
2022-09-24T06:33:30.713Z,99129.03
2022-09-24T06:36:01.941Z,99130.22
2022-09-24T06:38:31.539Z,99106.81
2022-09-24T06:41:03.723Z,99118.50
2022-09-24T06:43:33.469Z,99105.97
2022-09-24T06:46:03.694Z,99095.16
2022-09-24T06:48:32.872Z,99100.34
2022-09-24T06:51:01.213Z,99100.38
2022-09-24T06:53:29.534Z,99093.19
2022-09-24T06:55:59.887Z,99092.03
2022-09-24T06:58:30.019Z,99092.97
2022-09-24T07:01:02.509Z,99095.53
2022-09-24T07:03:33.584Z,99100.97
2022-09-24T07:06:04.022Z,99098.91
2022-09-24T07:08:32.996Z,99100.25
2022-09-24T07:11:02.280Z,99107.44
2022-09-24T07:13:32.789Z,99105.69
2022-09-24T07:16:01.606Z,99101.38
2022-09-24T07:18:30.091Z,99107.00
2022-09-24T07:20:58.473Z,99115.63
2022-09-24T07:23:27.924Z,99111.59
2022-09-24T07:25:58.038Z,99113.78
2022-09-24T07:28:27.013Z,99103.69
2022-09-24T07:31:01.186Z,99108.31
2022-09-24T07:33:31.988Z,99105.94
2022-09-24T07:36:00.306Z,99103.25
2022-09-24T07:38:28.634Z,99097.66
2022-09-24T07:40:59.499Z,99102.66
2022-09-24T07:43:28.217Z,99101.94
2022-09-24T07:45:58.227Z,99100.56
2022-09-24T07:48:28.090Z,99105.16
2022-09-24T07:50:56.508Z,99103.06
2022-09-24T07:53:24.940Z,99104.59
2022-09-24T07:55:53.657Z,99107.22
2022-09-24T07:58:21.985Z,99104.66
2022-09-24T08:00:50.367Z,99094.03
2022-09-24T08:03:18.808Z,99093.91
2022-09-24T08:05:48.645Z,99089.00
2022-09-24T08:08:17.138Z,99087.91
2022-09-24T08:10:45.491Z,99094.03
2022-09-24T08:13:13.931Z,99096.19
2022-09-24T08:15:42.723Z,99099.00
2022-09-24T08:18:11.566Z,99095.59
2022-09-24T08:20:40.359Z,99094.25
2022-09-24T08:23:11.474Z,99096.72
2022-09-24T08:25:39.847Z,99095.91
2022-09-24T08:28:10.739Z,99094.00
2022-09-24T08:30:39.969Z,99094.53
2022-09-24T08:33:08.307Z,99103.56
2022-09-24T08:35:38.404Z,99097.50
2022-09-24T08:38:07.154Z,99107.50
2022-09-24T08:40:44.056Z,99101.94
2022-09-24T08:43:31.017Z,99102.59
2022-09-24T08:46:21.171Z,99106.69
2022-09-24T08:48:53.687Z,99100.31
2022-09-24T08:51:24.494Z,99100.59
2022-09-24T08:54:01.515Z,99098.13
2022-09-24T08:56:36.621Z,99093.97
2022-09-24T08:59:17.701Z,99095.28
2022-09-24T09:01:52.489Z,99093.44
2022-09-24T09:04:32.052Z,99100.00
2022-09-24T09:07:15.612Z,99103.09
2022-09-24T09:09:50.281Z,99092.06
2022-09-24T09:12:26.995Z,99089.44
2022-09-24T09:15:05.399Z,99096.28
2022-09-24T09:17:45.818Z,99095.56
2022-09-24T09:20:21.123Z,99095.97
2022-09-24T09:22:53.430Z,99087.41
2022-09-24T09:25:25.586Z,99093.00
2022-09-24T09:28:02.223Z,99089.38
2022-09-24T09:30:43.745Z,99089.94
2022-09-24T09:33:28.379Z,99092.66
2022-09-24T09:36:05.892Z,99097.78
2022-09-24T09:38:44.684Z,99092.78
2022-09-24T09:41:24.134Z,99086.06
2022-09-24T09:44:01.253Z,99090.31
2022-09-24T09:46:38.909Z,99090.19
2022-09-24T09:49:09.201Z,99084.59
2022-09-24T09:51:43.039Z,99079.34
2022-09-24T09:54:11.607Z,99081.63
2022-09-24T09:56:45.852Z,99081.63
2022-09-24T09:59:28.830Z,99071.78
2022-09-24T10:01:58.275Z,99064.72
2022-09-24T10:04:39.963Z,99069.09
2022-09-24T10:07:11.516Z,99066.78
2022-09-24T10:09:43.222Z,99054.84
2022-09-24T10:12:21.296Z,99055.78
2022-09-24T10:15:02.344Z,99051.75
2022-09-24T10:17:37.281Z,99052.16
2022-09-24T10:20:16.608Z,99057.38
2022-09-24T10:22:51.091Z,99051.63
2022-09-24T10:25:24.714Z,99043.47
2022-09-24T10:27:55.624Z,99048.56
2022-09-24T10:30:36.342Z,99056.19
2022-09-24T10:33:08.915Z,99052.28
2022-09-24T10:35:39.168Z,99043.56
2022-09-24T10:38:19.979Z,99052.00
2022-09-24T10:40:50.175Z,99044.31
2022-09-24T10:43:21.466Z,99045.91
2022-09-24T10:46:14.418Z,99047.94
2022-09-24T10:48:50.927Z,99043.28
2022-09-24T10:51:37.101Z,99041.13
2022-09-24T10:54:33.570Z,99037.66
2022-09-24T10:57:13.369Z,99033.56
2022-09-24T11:00:02.364Z,99024.50
2022-09-24T11:03:12.936Z,99025.31
2022-09-24T11:05:50.170Z,99022.97
2022-09-24T11:08:32.500Z,99013.28
2022-09-24T11:11:18.399Z,99010.53
2022-09-24T11:13:59.359Z,99016.53
2022-09-24T11:16:47.562Z,99023.94
2022-09-24T11:19:39.319Z,99025.84
2022-09-24T11:22:15.636Z,99014.56
2022-09-24T11:25:12.376Z,99022.16
2022-09-24T11:27:57.405Z,99023.69
2022-09-24T11:30:32.644Z,99021.41
2022-09-24T11:33:26.342Z,99012.09
2022-09-24T11:36:34.958Z,99006.44
2022-09-24T11:39:39.249Z,99008.38
2022-09-24T11:42:23.088Z,99016.69
2022-09-24T11:45:30.090Z,99013.28
2022-09-24T11:48:42.142Z,99010.38
2022-09-24T11:51:30.263Z,99014.22
2022-09-24T11:54:04.936Z,98999.66
2022-09-24T11:56:39.808Z,98998.81
2022-09-24T11:59:18.351Z,99003.63
2022-09-24T12:01:52.948Z,98997.19
2022-09-24T12:04:29.062Z,99003.53
2022-09-24T12:07:04.083Z,99006.00
2022-09-24T12:09:38.690Z,98991.13
2022-09-24T12:12:12.864Z,99001.16
2022-09-24T12:14:50.885Z,98994.41
2022-09-24T12:17:33.210Z,98981.41
2022-09-24T12:20:06.694Z,98980.63
2022-09-24T12:22:39.906Z,98979.75
2022-09-24T12:25:13.999Z,98980.50
2022-09-24T12:27:43.097Z,98978.72
2022-09-24T12:30:47.606Z,98966.69
2022-09-24T12:33:28.265Z,98970.38
2022-09-24T12:36:07.089Z,98963.03
2022-09-24T12:38:42.833Z,98960.88
2022-09-24T12:41:32.865Z,98957.03
2022-09-24T12:44:08.400Z,98954.44
2022-09-24T12:46:42.727Z,98955.66
2022-09-24T12:49:29.874Z,98946.75
2022-09-24T12:52:00.692Z,98940.16
2022-09-24T12:54:34.022Z,98946.34
2022-09-24T12:57:11.367Z,98956.22
2022-09-24T12:59:51.943Z,98951.00
2022-09-24T13:02:24.447Z,98957.59
2022-09-24T13:05:18.347Z,98954.84
2022-09-24T13:08:01.961Z,98941.91
2022-09-24T13:10:34.687Z,98956.97
2022-09-24T13:13:16.558Z,98951.31
2022-09-24T13:15:45.663Z,98949.75
2022-09-24T13:18:24.303Z,98946.53
2022-09-24T13:21:05.818Z,98942.44
2022-09-24T13:23:46.018Z,98943.66
2022-09-24T13:26:34.794Z,98933.94
2022-09-24T13:29:05.790Z,98931.53
2022-09-24T13:31:47.782Z,98933.97
2022-09-24T13:34:21.722Z,98923.00
2022-09-24T13:36:58.902Z,98923.72
2022-09-24T13:39:36.581Z,98918.72
2022-09-24T13:42:18.757Z,98929.91
2022-09-24T13:44:52.432Z,98922.06
2022-09-24T13:47:36.274Z,98915.41
2022-09-24T13:50:15.361Z,98912.81
2022-09-24T13:52:48.359Z,98911.44
2022-09-24T13:55:22.830Z,98916.06
2022-09-24T13:57:52.671Z,98920.28
2022-09-24T14:00:24.508Z,98917.63
2022-09-24T14:03:02.189Z,98919.44
2022-09-24T14:05:35.197Z,98922.41
2022-09-24T14:08:08.693Z,98919.28
2022-09-24T14:10:37.515Z,98911.38
2022-09-24T14:13:23.838Z,98913.41
2022-09-24T14:15:58.079Z,98910.31
2022-09-24T14:18:28.338Z,98916.81
2022-09-24T14:21:04.222Z,98905.53
2022-09-24T14:23:38.383Z,98907.97
2022-09-24T14:26:07.646Z,98908.97
2022-09-24T14:28:37.374Z,98901.94
2022-09-24T14:31:10.401Z,98901.34
2022-09-24T14:33:40.589Z,98907.63
2022-09-24T14:36:13.827Z,98903.03
2022-09-24T14:38:54.262Z,98904.81
2022-09-24T14:41:26.987Z,98898.31
2022-09-24T14:44:00.263Z,98903.78
2022-09-24T14:46:33.671Z,98906.44
2022-09-24T14:49:20.372Z,98902.59
2022-09-24T14:51:58.158Z,98904.84
2022-09-24T14:54:33.797Z,98908.69
2022-09-24T14:57:13.367Z,98908.03
2022-09-24T14:59:43.058Z,98899.94
2022-09-24T15:02:21.124Z,98894.16
2022-09-24T15:04:53.278Z,98891.25
2022-09-24T15:07:25.588Z,98893.53
2022-09-24T15:09:57.023Z,98901.78
2022-09-24T15:12:31.227Z,98900.44
2022-09-24T15:15:03.259Z,98903.06
2022-09-24T15:17:33.475Z,98902.97
2022-09-24T15:20:02.613Z,98909.22
2022-09-24T15:22:32.267Z,98911.47
2022-09-24T15:25:02.314Z,98912.53
2022-09-24T15:27:33.020Z,98908.03
2022-09-24T15:30:05.690Z,98895.34
2022-09-24T15:32:36.708Z,98897.63
2022-09-24T15:35:09.480Z,98899.44
2022-09-24T15:37:40.480Z,98900.75
2022-09-24T15:40:20.672Z,98900.81
2022-09-24T15:42:49.421Z,98894.66
2022-09-24T15:45:22.422Z,98892.81
2022-09-24T15:47:51.653Z,98894.25
2022-09-24T15:50:21.578Z,98888.09
2022-09-24T15:52:53.386Z,98891.19
2022-09-24T15:55:24.051Z,98896.22
2022-09-24T15:57:53.223Z,98890.41
2022-09-24T16:00:27.307Z,98893.81
2022-09-24T16:02:58.322Z,98892.91
2022-09-24T16:05:27.098Z,98887.88
2022-09-24T16:07:55.521Z,98883.72
2022-09-24T16:10:23.996Z,98890.75
2022-09-24T16:12:52.435Z,98887.69
2022-09-24T16:15:22.374Z,98898.69
2022-09-24T16:17:51.023Z,98891.22
2022-09-24T16:20:19.793Z,98895.81
2022-09-24T16:22:48.211Z,98904.28
2022-09-24T16:25:16.873Z,98894.41
2022-09-24T16:27:45.418Z,98898.16
2022-09-24T16:30:14.211Z,98898.28
2022-09-24T16:32:44.142Z,98895.25
2022-09-24T16:35:13.360Z,98903.38
2022-09-24T16:37:42.251Z,98894.28
2022-09-24T16:40:12.305Z,98898.91
2022-09-24T16:42:40.801Z,98899.63
2022-09-24T16:45:12.583Z,98907.06
2022-09-24T16:47:40.976Z,98901.81
2022-09-24T16:50:11.612Z,98905.31
2022-09-24T16:52:40.263Z,98909.72
2022-09-24T16:55:10.261Z,98907.63
2022-09-24T16:57:39.367Z,98906.00
2022-09-24T17:00:10.805Z,98900.75
2022-09-24T17:02:39.289Z,98902.75
2022-09-24T17:05:11.009Z,98914.25
2022-09-24T17:07:39.404Z,98914.59
2022-09-24T17:10:16.196Z,98916.94
2022-09-24T17:12:47.195Z,98915.66
2022-09-24T17:15:19.383Z,98920.78
2022-09-24T17:17:50.186Z,98927.50
2022-09-24T17:20:21.450Z,98928.22
2022-09-24T17:22:50.300Z,98921.81
2022-09-24T17:25:18.800Z,98921.34
2022-09-24T17:27:47.222Z,98916.44
2022-09-24T17:30:16.545Z,98916.78
2022-09-24T17:32:45.011Z,98926.31
2022-09-24T17:35:14.829Z,98919.44
2022-09-24T17:37:45.266Z,98913.75
2022-09-24T17:40:19.873Z,98912.44
2022-09-24T17:42:51.784Z,98912.78
2022-09-24T17:45:21.504Z,98910.69
2022-09-24T17:47:58.643Z,98913.81
2022-09-24T17:50:27.010Z,98920.09
2022-09-24T17:52:56.776Z,98910.75
2022-09-24T17:55:25.305Z,98910.63
2022-09-24T17:57:53.711Z,98908.03
2022-09-24T18:00:22.187Z,98915.47
2022-09-24T18:02:50.640Z,98910.09
2022-09-24T18:05:19.114Z,98909.50
2022-09-24T18:07:47.540Z,98913.31
2022-09-24T18:10:18.606Z,98909.09
2022-09-24T18:12:47.159Z,98912.91
2022-09-24T18:15:15.872Z,98918.34
2022-09-24T18:17:44.325Z,98910.66
2022-09-24T18:20:12.836Z,98914.94
2022-09-24T18:22:41.262Z,98910.84
2022-09-24T18:25:11.741Z,98910.38
2022-09-24T18:27:41.526Z,98906.78
2022-09-24T18:30:11.833Z,98903.50
2022-09-24T18:32:40.480Z,98902.69
2022-09-24T18:35:11.092Z,98912.56
2022-09-24T18:37:40.114Z,98912.91
2022-09-24T18:40:12.314Z,98915.22
2022-09-24T18:42:42.110Z,98907.19
2022-09-24T18:45:11.598Z,98903.44
2022-09-24T18:47:39.999Z,98901.81
2022-09-24T18:50:10.196Z,98904.44
2022-09-24T18:52:38.607Z,98907.09
2022-09-24T18:55:08.978Z,98910.53
2022-09-24T18:57:37.885Z,98916.31
2022-09-24T19:00:30.743Z,98907.00
2022-09-24T19:02:59.881Z,98907.19
2022-09-24T19:05:29.826Z,98906.59
2022-09-24T19:07:59.176Z,98909.22
2022-09-24T19:10:27.757Z,98905.00
2022-09-24T19:12:56.880Z,98909.13
2022-09-24T19:15:26.724Z,98909.31
2022-09-24T19:17:55.183Z,98909.50
2022-09-24T19:20:23.609Z,98912.97
2022-09-24T19:22:59.948Z,98909.88
2022-09-24T19:25:29.163Z,98907.25
2022-09-24T19:27:57.961Z,98902.22
2022-09-24T19:30:27.961Z,98906.34
2022-09-24T19:32:56.318Z,98898.81
2022-09-24T19:35:24.781Z,98901.78
2022-09-24T19:37:53.348Z,98897.22
2022-09-24T19:40:21.829Z,98897.72
2022-09-24T19:42:50.329Z,98895.13
2022-09-24T19:45:18.737Z,98898.09
2022-09-24T19:47:50.272Z,98895.81
2022-09-24T19:50:18.970Z,98897.94
2022-09-24T19:52:48.828Z,98897.81
2022-09-24T19:55:17.729Z,98889.63
2022-09-24T19:57:46.113Z,98897.00
2022-09-24T20:00:15.644Z,98906.31
2022-09-24T20:02:44.109Z,98910.59
2022-09-24T20:05:14.021Z,98904.03
2022-09-24T20:07:42.584Z,98906.19
2022-09-24T20:10:11.660Z,98911.91
2022-09-24T20:12:41.701Z,98914.81
2022-09-24T20:15:11.457Z,98913.38
2022-09-24T20:17:39.842Z,98919.91
2022-09-24T20:20:09.657Z,98928.41
2022-09-24T20:22:39.494Z,98927.72
2022-09-24T20:25:09.386Z,98928.72
2022-09-24T20:27:52.063Z,98932.97
2022-09-24T20:30:23.937Z,98923.97
2022-09-24T20:32:52.589Z,98929.06
2022-09-24T20:35:21.388Z,98936.06
2022-09-24T20:37:51.293Z,98931.66
2022-09-24T20:40:19.949Z,98926.09
2022-09-24T20:42:49.327Z,98916.13
2022-09-24T20:45:18.098Z,98921.69
2022-09-24T20:47:46.719Z,98910.22
2022-09-24T20:50:15.369Z,98919.41
2022-09-24T20:52:43.835Z,98910.38
2022-09-24T20:55:15.313Z,98907.28
2022-09-24T20:57:44.637Z,98911.38
2022-09-24T21:00:15.239Z,98905.50
2022-09-24T21:02:44.586Z,98900.09
2022-09-24T21:05:13.207Z,98905.81
2022-09-24T21:07:42.815Z,98905.19
2022-09-24T21:10:13.701Z,98911.53
2022-09-24T21:12:43.045Z,98908.44
2022-09-24T21:15:15.532Z,98908.13
2022-09-24T21:17:59.470Z,98910.06
2022-09-24T21:20:33.205Z,98904.03
2022-09-24T21:23:01.667Z,98908.75
2022-09-24T21:25:53.235Z,98907.13
2022-09-24T21:28:23.047Z,98911.06
2022-09-24T21:31:01.188Z,98912.53
2022-09-24T21:33:29.709Z,98913.34
2022-09-24T21:36:00.637Z,98918.06
2022-09-24T21:38:29.128Z,98921.19
2022-09-24T21:41:01.440Z,98917.94
2022-09-24T21:43:34.626Z,98917.44
2022-09-24T21:46:06.769Z,98914.97
2022-09-24T21:48:36.150Z,98916.13
2022-09-24T21:51:07.186Z,98916.78
2022-09-24T21:53:36.220Z,98911.88
2022-09-24T21:56:07.485Z,98912.53
2022-09-24T21:58:36.996Z,98910.88
2022-09-24T22:01:15.565Z,98910.38
2022-09-24T22:03:45.330Z,98908.44
2022-09-24T22:06:14.152Z,98903.69
2022-09-24T22:08:43.213Z,98899.75
2022-09-24T22:11:13.785Z,98910.56
2022-09-24T22:13:42.673Z,98904.66
2022-09-24T22:16:12.928Z,98908.28
2022-09-24T22:18:41.762Z,98908.75
2022-09-24T22:21:12.986Z,98899.59
2022-09-24T22:23:42.678Z,98899.59
2022-09-24T22:26:14.682Z,98902.38
2022-09-24T22:28:43.933Z,98896.81
2022-09-24T22:31:16.662Z,98898.78
2022-09-24T22:34:03.456Z,98900.75
2022-09-24T22:36:33.684Z,98889.13
2022-09-24T22:39:03.610Z,98888.34
2022-09-24T22:41:35.801Z,98885.03
2022-09-24T22:44:04.475Z,98870.66
2022-09-24T22:46:36.195Z,98879.16
2022-09-24T22:49:06.459Z,98878.50
2022-09-24T22:51:35.388Z,98882.25
2022-09-24T22:54:03.964Z,98882.06
2022-09-24T22:56:35.420Z,98895.81
2022-09-24T22:59:04.270Z,98908.72
2022-09-24T23:01:34.791Z,98907.06
2022-09-24T23:04:04.047Z,98901.34
2022-09-24T23:06:33.972Z,98898.38
2022-09-24T23:09:03.085Z,98901.81
2022-09-24T23:11:35.571Z,98905.25
2022-09-24T23:14:07.247Z,98901.44
2022-09-24T23:16:37.628Z,98906.81
2022-09-24T23:19:08.968Z,98904.38
2022-09-24T23:21:37.363Z,98898.31
2022-09-24T23:24:09.948Z,98896.50
2022-09-24T23:26:39.802Z,98897.13
2022-09-24T23:29:08.948Z,98898.59
2022-09-24T23:31:38.627Z,98898.44
2022-09-24T23:34:08.639Z,98897.13
2022-09-24T23:36:37.806Z,98906.91
2022-09-24T23:39:06.846Z,98897.25
2022-09-24T23:41:35.299Z,98910.63
2022-09-24T23:44:05.387Z,98896.25
2022-09-24T23:46:34.262Z,98902.31
2022-09-24T23:49:02.978Z,98887.75
2022-09-24T23:51:31.388Z,98889.56
2022-09-24T23:54:00.056Z,98894.16
2022-09-24T23:56:29.090Z,98894.38
2022-09-24T23:58:57.755Z,98892.91
